createdAt,value
2023-01-02T00:02:53.992Z,11.30
2023-01-02T00:06:03.720Z,11.63
2023-01-02T00:09:13.508Z,7.13
2023-01-02T00:12:21.852Z,10.63
2023-01-02T00:15:30.200Z,11.97
2023-01-02T00:18:38.558Z,13.10
2023-01-02T00:21:46.946Z,12.77
2023-01-02T00:24:56.684Z,16.40
2023-01-02T00:28:05.749Z,10.60
2023-01-02T00:31:16.127Z,10.37
2023-01-02T00:34:24.540Z,13.67
2023-01-02T00:37:32.933Z,16.20
2023-01-02T00:40:43.199Z,9.87
2023-01-02T00:43:51.658Z,10.03
2023-01-02T00:47:00.076Z,7.43
2023-01-02T00:50:08.986Z,15.07
2023-01-02T00:53:17.881Z,14.07
2023-01-02T00:56:27.754Z,18.93
2023-01-02T00:59:36.149Z,19.50
2023-01-02T01:02:44.582Z,17.43
2023-01-02T01:05:53.083Z,14.13
2023-01-02T01:09:01.633Z,22.53
2023-01-02T01:12:11.429Z,15.90
2023-01-02T01:15:20.107Z,12.13
2023-01-02T01:18:28.450Z,19.90
2023-01-02T01:21:37.269Z,16.47
2023-01-02T01:24:45.615Z,15.77
2023-01-02T01:27:55.772Z,15.00
2023-01-02T01:31:04.837Z,14.43
2023-01-02T01:34:13.617Z,18.93
2023-01-02T01:37:22.021Z,22.10
2023-01-02T01:40:30.536Z,15.87
2023-01-02T01:43:43.246Z,16.03
2023-01-02T01:46:51.601Z,19.90
2023-01-02T01:50:05.868Z,13.90
2023-01-02T01:53:19.657Z,11.83
2023-01-02T01:56:28.781Z,10.97
2023-01-02T01:59:38.679Z,14.37
2023-01-02T02:02:51.395Z,18.20
2023-01-02T02:06:02.741Z,21.40
2023-01-02T02:09:16.582Z,20.30
2023-01-02T02:12:28.166Z,16.03
2023-01-02T02:15:44.898Z,18.40
2023-01-02T02:19:16.785Z,17.23
2023-01-02T02:22:49.486Z,20.30
2023-01-02T02:26:13.760Z,9.30
2023-01-02T02:29:59.035Z,17.13
2023-01-02T02:33:29.319Z,11.87
2023-01-02T02:36:41.209Z,16.90
2023-01-02T02:40:01.878Z,18.40
2023-01-02T02:43:21.023Z,17.47
2023-01-02T02:46:35.698Z,19.73
2023-01-02T02:49:54.359Z,14.60
2023-01-02T02:53:09.180Z,18.40
2023-01-02T02:56:19.084Z,13.57
2023-01-02T02:59:29.340Z,16.70
2023-01-02T03:02:38.599Z,13.77
2023-01-02T03:06:07.116Z,13.10
2023-01-02T03:09:24.301Z,17.30
2023-01-02T03:12:40.773Z,11.33
2023-01-02T03:15:58.382Z,13.70
2023-01-02T03:19:10.096Z,11.23
2023-01-02T03:22:23.067Z,11.03
2023-01-02T03:25:33.728Z,12.63
2023-01-02T03:28:45.783Z,10.80
2023-01-02T03:31:58.247Z,10.70
2023-01-02T03:35:10.223Z,14.20
2023-01-02T03:38:25.980Z,14.70
2023-01-02T03:41:37.454Z,12.07
2023-01-02T03:44:52.751Z,12.53
2023-01-02T03:48:09.607Z,8.40
2023-01-02T03:51:18.107Z,16.00
2023-01-02T03:54:29.890Z,13.50
2023-01-02T03:57:57.026Z,13.73
2023-01-02T04:01:09.633Z,14.70
2023-01-02T04:04:23.424Z,11.17
2023-01-02T04:07:38.459Z,16.20
2023-01-02T04:10:56.244Z,8.57
2023-01-02T04:14:15.159Z,15.43
2023-01-02T04:17:26.126Z,10.93
2023-01-02T04:20:39.488Z,16.23
2023-01-02T04:23:51.521Z,11.63
2023-01-02T04:27:06.215Z,6.90
2023-01-02T04:30:14.753Z,9.63
2023-01-02T04:33:25.913Z,11.50
2023-01-02T04:36:39.594Z,8.13
2023-01-02T04:39:48.568Z,12.53
2023-01-02T04:42:58.429Z,10.53
2023-01-02T04:46:07.168Z,16.07
2023-01-02T04:49:15.567Z,9.00
2023-01-02T04:52:23.972Z,9.87
2023-01-02T04:55:32.309Z,9.50
2023-01-02T04:58:42.975Z,11.90
2023-01-02T05:01:51.479Z,6.87
2023-01-02T05:04:59.902Z,5.90
2023-01-02T05:08:13.850Z,5.03
2023-01-02T05:11:24.364Z,9.27
2023-01-02T05:14:34.123Z,10.73
2023-01-02T05:17:43.489Z,4.60
2023-01-02T05:20:51.824Z,6.07
2023-01-02T05:24:00.799Z,10.57
2023-01-02T05:27:09.266Z,8.70
2023-01-02T05:30:19.181Z,10.00
2023-01-02T05:33:27.518Z,9.50
2023-01-02T05:36:35.852Z,7.93
2023-01-02T05:39:44.172Z,11.37
2023-01-02T05:42:52.522Z,6.53
2023-01-02T05:46:08.430Z,8.30
2023-01-02T05:49:16.798Z,13.77
2023-01-02T05:52:25.204Z,11.80
2023-01-02T05:55:33.616Z,8.57
2023-01-02T05:58:43.573Z,6.33
2023-01-02T06:01:53.450Z,16.37
2023-01-02T06:05:01.897Z,9.37
2023-01-02T06:08:10.243Z,7.33
2023-01-02T06:11:18.871Z,5.63
2023-01-02T06:14:27.519Z,7.23
2023-01-02T06:17:37.281Z,11.83
2023-01-02T06:20:45.628Z,9.73
2023-01-02T06:23:57.037Z,6.50
2023-01-02T06:27:05.504Z,5.43
2023-01-02T06:30:14.313Z,8.03
2023-01-02T06:33:24.027Z,9.13
2023-01-02T06:36:34.502Z,5.40
2023-01-02T06:39:42.858Z,5.47
2023-01-02T06:42:53.757Z,4.13
2023-01-02T06:46:06.305Z,8.47
2023-01-02T06:49:16.111Z,5.23
2023-01-02T06:52:24.532Z,5.40
2023-01-02T06:55:32.885Z,6.90
2023-01-02T06:58:41.328Z,3.20
2023-01-02T07:01:49.841Z,4.67
2023-01-02T07:04:59.661Z,5.07
2023-01-02T07:08:08.277Z,5.47
2023-01-02T07:11:18.395Z,4.40
2023-01-02T07:14:27.263Z,4.03
2023-01-02T07:17:35.896Z,3.00
2023-01-02T07:20:54.205Z,3.90
2023-01-02T07:24:02.580Z,3.10
2023-01-02T07:27:10.967Z,5.20
2023-01-02T07:30:19.500Z,5.53
2023-01-02T07:33:29.887Z,5.37
2023-01-02T07:36:39.640Z,2.60
2023-01-02T07:39:48.049Z,4.53
2023-01-02T07:42:56.438Z,5.43
2023-01-02T07:46:05.660Z,4.67
2023-01-02T07:49:14.995Z,3.00
2023-01-02T07:52:24.766Z,2.80
2023-01-02T07:55:33.380Z,2.43
2023-01-02T07:58:41.765Z,4.23
2023-01-02T08:01:50.187Z,3.37
2023-01-02T08:04:58.616Z,2.63
2023-01-02T08:08:09.053Z,1.63
2023-01-02T08:11:18.739Z,2.30
2023-01-02T08:14:27.123Z,2.37
2023-01-02T08:17:35.563Z,1.63
2023-01-02T08:20:43.975Z,2.97
2023-01-02T08:23:54.020Z,2.33
2023-01-02T08:27:02.455Z,1.50
2023-01-02T08:30:11.876Z,1.40
2023-01-02T08:33:20.387Z,1.93
2023-01-02T08:36:28.887Z,2.77
2023-01-02T08:39:38.686Z,2.97
2023-01-02T08:42:47.053Z,5.17
2023-01-02T08:45:56.175Z,1.87
2023-01-02T08:49:04.815Z,2.27
2023-01-02T08:52:13.224Z,2.70
2023-01-02T08:55:23.151Z,1.77
2023-01-02T08:58:31.490Z,3.93
2023-01-02T09:01:40.467Z,2.67
2023-01-02T09:04:48.915Z,3.93
2023-01-02T09:07:58.510Z,2.87
2023-01-02T09:11:13.896Z,1.83
2023-01-02T09:14:23.753Z,2.27
2023-01-02T09:17:32.190Z,1.80
2023-01-02T09:20:41.584Z,2.10
2023-01-02T09:23:50.003Z,4.97
2023-01-02T09:26:59.715Z,3.80
2023-01-02T09:30:08.882Z,3.53
2023-01-02T09:33:17.216Z,5.43
2023-01-02T09:36:25.807Z,2.10
2023-01-02T09:39:34.172Z,2.93
2023-01-02T09:42:45.383Z,2.63
2023-01-02T09:45:57.085Z,1.97
2023-01-02T09:49:06.129Z,2.70
2023-01-02T09:52:20.382Z,2.03
2023-01-02T09:55:39.409Z,2.53
2023-01-02T09:58:54.016Z,6.40
2023-01-02T10:02:13.461Z,2.77
2023-01-02T10:05:54.786Z,6.00
2023-01-02T10:09:09.639Z,4.00
2023-01-02T10:12:25.015Z,2.87
2023-01-02T10:15:36.082Z,2.63
2023-01-02T10:18:48.141Z,2.67
2023-01-02T10:22:00.206Z,2.63
2023-01-02T10:25:15.807Z,2.53
2023-01-02T10:28:31.579Z,3.07
2023-01-02T10:31:45.752Z,2.80
2023-01-02T10:35:03.385Z,3.80
2023-01-02T10:38:13.242Z,3.37
2023-01-02T10:41:21.645Z,3.70
2023-01-02T10:44:34.617Z,3.83
2023-01-02T10:47:46.292Z,2.83
2023-01-02T10:50:57.843Z,3.07
2023-01-02T10:54:08.303Z,3.53
2023-01-02T10:57:22.953Z,2.67
2023-01-02T11:00:32.613Z,3.53
2023-01-02T11:03:42.474Z,3.30
2023-01-02T11:06:54.892Z,3.20
2023-01-02T11:10:04.719Z,4.60
2023-01-02T11:13:15.468Z,3.33
2023-01-02T11:16:27.488Z,4.97
2023-01-02T11:19:43.830Z,3.70
2023-01-02T11:22:53.037Z,3.83
2023-01-02T11:26:02.208Z,3.77
2023-01-02T11:29:14.816Z,5.40
2023-01-02T11:32:25.163Z,3.97
2023-01-02T11:35:44.763Z,4.10
2023-01-02T11:38:54.881Z,3.07
2023-01-02T11:42:40.625Z,3.37
2023-01-02T11:45:49.313Z,3.37
2023-01-02T11:49:03.224Z,3.13
2023-01-02T11:52:17.078Z,3.40
2023-01-02T11:55:41.000Z,4.07
2023-01-02T11:58:56.676Z,3.07
2023-01-02T12:02:13.348Z,3.47
2023-01-02T12:05:33.743Z,3.03
2023-01-02T12:09:03.771Z,2.90
2023-01-02T12:12:30.379Z,3.10
2023-01-02T12:16:02.344Z,2.70
2023-01-02T12:19:46.582Z,2.60
2023-01-02T12:23:16.458Z,2.40
2023-01-02T12:26:32.456Z,2.30
2023-01-02T12:29:53.676Z,1.60
2023-01-02T12:33:24.125Z,2.20
2023-01-02T12:36:52.682Z,2.57
2023-01-02T12:40:31.702Z,1.60
2023-01-02T12:44:03.164Z,1.30
2023-01-02T12:47:30.162Z,1.63
2023-01-02T12:51:09.736Z,3.27
2023-01-02T12:54:37.960Z,2.17
2023-01-02T12:57:56.136Z,1.20
2023-01-02T13:01:16.994Z,1.37
2023-01-02T13:04:30.167Z,1.40
2023-01-02T13:07:44.526Z,1.40
2023-01-02T13:10:54.259Z,1.10
2023-01-02T13:14:04.990Z,1.03
2023-01-02T13:17:42.887Z,1.43
2023-01-02T13:20:56.776Z,1.20
2023-01-02T13:24:08.885Z,0.90
2023-01-02T13:27:17.483Z,1.23
2023-01-02T13:31:05.432Z,0.60
2023-01-02T13:34:29.036Z,1.53
2023-01-02T13:37:37.428Z,1.23
2023-01-02T13:40:47.245Z,0.80
2023-01-02T13:43:59.626Z,0.60
2023-01-02T13:47:25.730Z,1.30
2023-01-02T13:50:40.820Z,0.80
2023-01-02T13:53:50.834Z,0.90
2023-01-02T13:57:31.563Z,0.70
2023-01-02T14:00:41.833Z,0.87
2023-01-02T14:03:50.571Z,0.70
2023-01-02T14:07:47.776Z,1.50
2023-01-02T14:11:01.323Z,0.83
2023-01-02T14:14:13.498Z,1.23
2023-01-02T14:17:32.326Z,0.93
2023-01-02T14:20:44.902Z,3.13
2023-01-02T14:24:17.709Z,1.27
2023-01-02T14:27:25.949Z,2.53
2023-01-02T14:30:38.237Z,2.23
2023-01-02T14:33:56.108Z,1.60
2023-01-02T14:37:04.701Z,1.30
2023-01-02T14:40:36.882Z,1.70
2023-01-02T14:43:47.730Z,1.73
2023-01-02T14:46:57.909Z,2.33
2023-01-02T14:50:11.648Z,1.80
2023-01-02T14:53:23.488Z,1.83
2023-01-02T14:56:38.054Z,1.20
2023-01-02T14:59:48.241Z,1.47
2023-01-02T15:03:06.373Z,0.97
2023-01-02T15:06:24.331Z,0.80
2023-01-02T15:09:36.180Z,1.23
2023-01-02T15:13:07.284Z,1.87
2023-01-02T15:16:16.203Z,1.17
2023-01-02T15:19:28.724Z,0.90
2023-01-02T15:22:43.214Z,1.07
2023-01-02T15:25:52.962Z,0.70
2023-01-02T15:29:25.943Z,0.70
2023-01-02T15:32:36.100Z,1.17
2023-01-02T15:35:45.371Z,0.80
2023-01-02T15:39:04.033Z,0.90
2023-01-02T15:42:35.937Z,1.13
2023-01-02T15:45:48.655Z,0.90
2023-01-02T15:48:57.397Z,1.53
2023-01-02T15:52:06.515Z,1.80
2023-01-02T15:55:17.602Z,2.37
2023-01-02T15:58:29.046Z,1.70
2023-01-02T16:01:46.203Z,1.80
2023-01-02T16:05:11.100Z,2.10
2023-01-02T16:08:21.875Z,1.90
2023-01-02T16:11:31.101Z,2.30
2023-01-02T16:14:45.560Z,1.80
2023-01-02T16:17:57.161Z,1.83
2023-01-02T16:21:06.929Z,2.00
2023-01-02T16:24:20.176Z,1.70
2023-01-02T16:27:32.149Z,1.40
2023-01-02T16:30:42.675Z,1.40
2023-01-02T16:33:53.340Z,0.60
2023-01-02T16:37:34.074Z,0.70
2023-01-02T16:40:59.752Z,0.50
2023-01-02T16:44:14.177Z,0.77
2023-01-02T16:47:23.000Z,1.20
2023-01-02T16:50:33.081Z,0.97
2023-01-02T16:53:45.792Z,0.93
2023-01-02T16:56:54.401Z,0.67
2023-01-02T17:00:02.873Z,0.40
2023-01-02T17:03:17.590Z,0.83
2023-01-02T17:06:27.487Z,1.03
2023-01-02T17:09:35.802Z,1.00
2023-01-02T17:12:44.235Z,0.37
2023-01-02T17:15:52.646Z,2.03
2023-01-02T17:19:01.055Z,0.70
2023-01-02T17:22:10.951Z,0.70
2023-01-02T17:25:19.471Z,0.83
2023-01-02T17:28:28.487Z,0.70
2023-01-02T17:31:36.987Z,0.73
2023-01-02T17:34:48.660Z,0.80
2023-01-02T17:37:58.561Z,0.50
2023-01-02T17:41:07.648Z,0.60
2023-01-02T17:44:16.064Z,1.20
2023-01-02T17:47:58.253Z,0.63
2023-01-02T17:50:54.305Z,0.87
2023-01-02T17:54:04.379Z,0.60
2023-01-02T17:57:13.245Z,0.60
2023-01-02T18:00:23.592Z,0.77
2023-01-02T18:03:32.255Z,0.60
2023-01-02T18:06:40.670Z,0.90
2023-01-02T18:10:07.888Z,0.70
2023-01-02T18:13:18.256Z,1.47
2023-01-02T18:16:33.139Z,0.80
2023-01-02T18:19:41.955Z,0.73
2023-01-02T18:22:51.248Z,0.80
2023-01-02T18:26:01.608Z,0.90
2023-01-02T18:29:18.056Z,1.00
2023-01-02T18:32:33.608Z,0.90
2023-01-02T18:35:58.833Z,1.40
2023-01-02T18:39:15.305Z,2.27
2023-01-02T18:42:27.615Z,1.83
2023-01-02T18:45:36.252Z,0.93
2023-01-02T18:48:45.025Z,1.77
2023-01-02T18:52:01.036Z,1.37
2023-01-02T18:55:20.999Z,1.10
2023-01-02T18:58:52.307Z,0.93
2023-01-02T19:02:03.271Z,0.60
2023-01-02T19:05:20.655Z,1.43
2023-01-02T19:08:35.907Z,0.60
2023-01-02T19:12:02.072Z,0.60
2023-01-02T19:15:38.358Z,0.80
2023-01-02T19:18:48.329Z,1.03
2023-01-02T19:21:56.879Z,1.03
2023-01-02T19:25:16.535Z,1.10
2023-01-02T19:28:28.444Z,1.10
2023-01-02T19:31:43.812Z,1.40
2023-01-02T19:34:53.279Z,1.17
2023-01-02T19:38:08.167Z,0.93
2023-01-02T19:41:16.592Z,1.33
2023-01-02T19:44:25.070Z,1.00
2023-01-02T19:47:36.436Z,1.07
2023-01-02T19:50:44.787Z,1.27
2023-01-02T19:53:54.044Z,1.10
2023-01-02T19:57:04.897Z,1.47
2023-01-02T20:00:15.996Z,1.50
2023-01-02T20:03:25.831Z,2.10
2023-01-02T20:06:35.902Z,2.30
2023-01-02T20:09:44.331Z,2.53
2023-01-02T20:12:52.912Z,2.13
2023-01-02T20:16:02.380Z,1.07
2023-01-02T20:19:12.813Z,0.90
2023-01-02T20:22:21.447Z,1.20
2023-01-02T20:25:30.040Z,1.83
2023-01-02T20:28:38.446Z,2.23
2023-01-02T20:31:46.805Z,0.83
2023-01-02T20:34:58.218Z,1.57
2023-01-02T20:38:06.587Z,0.60
2023-01-02T20:41:15.614Z,0.83
2023-01-02T20:44:24.026Z,1.43
2023-01-02T20:47:32.492Z,1.27
2023-01-02T20:50:42.454Z,0.70
2023-01-02T20:53:50.884Z,1.57
2023-01-02T20:56:59.230Z,1.60
2023-01-02T21:00:10.523Z,1.27
2023-01-02T21:03:19.302Z,0.93
2023-01-02T21:06:29.469Z,1.03
2023-01-02T21:09:39.264Z,0.20
2023-01-02T21:13:05.386Z,0.73
2023-01-02T21:16:13.784Z,1.93
2023-01-02T21:19:22.258Z,1.03
2023-01-02T21:22:32.702Z,1.37
2023-01-02T21:25:41.811Z,1.17
2023-01-02T21:28:50.531Z,2.20
2023-01-02T21:31:58.927Z,0.80
2023-01-02T21:35:08.687Z,1.60
2023-01-02T21:38:19.774Z,4.50
2023-01-02T21:41:45.354Z,2.17
2023-01-02T21:44:53.767Z,4.23
2023-01-02T21:48:03.350Z,0.87
2023-01-02T21:51:11.867Z,1.97
2023-01-02T21:54:21.684Z,2.27
2023-01-02T21:57:54.208Z,0.40
2023-01-02T22:00:58.803Z,1.63
2023-01-02T22:04:07.245Z,4.47
2023-01-02T22:07:32.318Z,1.47
2023-01-02T22:10:42.952Z,0.93
2023-01-02T22:13:51.357Z,2.07
2023-01-02T22:17:03.249Z,1.43
2023-01-02T22:20:12.675Z,2.40
2023-01-02T22:23:21.071Z,0.77
2023-01-02T22:26:31.308Z,1.77
2023-01-02T22:30:18.638Z,2.03
2023-01-02T22:33:08.333Z,3.00
2023-01-02T22:36:16.795Z,0.73
2023-01-02T22:39:28.851Z,0.50
2023-01-02T22:43:06.104Z,0.50
2023-01-02T22:46:29.399Z,2.43
2023-01-02T22:49:40.741Z,1.10
2023-01-02T22:52:50.339Z,1.80
2023-01-02T22:55:59.246Z,1.10
2023-01-02T22:59:09.578Z,1.20
2023-01-02T23:02:20.727Z,1.13
2023-01-02T23:05:29.120Z,2.40
2023-01-02T23:08:37.633Z,2.80
2023-01-02T23:11:46.339Z,2.43
2023-01-02T23:14:56.099Z,2.00
2023-01-02T23:18:21.863Z,4.93
2023-01-02T23:21:33.148Z,1.77
2023-01-02T23:24:41.521Z,1.53
2023-01-02T23:27:50.215Z,1.70
2023-01-02T23:31:00.063Z,1.40
2023-01-02T23:34:08.844Z,1.67
2023-01-02T23:37:17.249Z,2.63
2023-01-02T23:40:29.326Z,1.97
2023-01-02T23:43:40.600Z,2.10
2023-01-02T23:46:51.051Z,1.60
2023-01-02T23:49:59.448Z,2.83
2023-01-02T23:53:07.802Z,0.77
2023-01-02T23:56:20.713Z,1.30
2023-01-02T23:59:29.167Z,0.53
